sensor_id;sensor_type;location;lat;lon;timestamp;P1;durP1;ratioP1;P2;durP2;ratioP2
49153;SDS011;49455;52.252;9.124;2023-07-31T00:03:04;5.40;;;2.30;;
49153;SDS011;49455;52.252;9.124;2023-07-31T00:08:05;3.97;;;2.15;;
49153;SDS011;49455;52.252;9.124;2023-07-31T00:13:05;4.28;;;2.20;;
49153;SDS011;49455;52.252;9.124;2023-07-31T00:18:05;5.13;;;2.30;;
49153;SDS011;49455;52.252;9.124;2023-07-31T00:23:06;4.75;;;2.13;;
49153;SDS011;49455;52.252;9.124;2023-07-31T00:28:06;4.90;;;2.10;;
49153;SDS011;49455;52.252;9.124;2023-07-31T00:33:07;4.60;;;1.95;;
49153;SDS011;49455;52.252;9.124;2023-07-31T00:38:07;3.78;;;1.73;;
49153;SDS011;49455;52.252;9.124;2023-07-31T00:43:08;3.90;;;1.80;;
49153;SDS011;49455;52.252;9.124;2023-07-31T00:48:08;3.50;;;1.70;;
49153;SDS011;49455;52.252;9.124;2023-07-31T00:53:09;2.22;;;1.30;;
49153;SDS011;49455;52.252;9.124;2023-07-31T00:58:09;3.38;;;1.40;;
49153;SDS011;49455;52.252;9.124;2023-07-31T01:03:12;3.00;;;1.33;;
49153;SDS011;49455;52.252;9.124;2023-07-31T01:08:33;3.58;;;1.50;;
49153;SDS011;49455;52.252;9.124;2023-07-31T01:13:35;2.80;;;1.30;;
49153;SDS011;49455;52.252;9.124;2023-07-31T01:18:35;3.37;;;1.30;;
49153;SDS011;49455;52.252;9.124;2023-07-31T01:23:51;3.13;;;1.10;;
49153;SDS011;49455;52.252;9.124;2023-07-31T01:29:17;2.22;;;1.45;;
49153;SDS011;49455;52.252;9.124;2023-07-31T01:34:20;2.83;;;1.50;;
49153;SDS011;49455;52.252;9.124;2023-07-31T01:39:21;2.40;;;1.60;;
49153;SDS011;49455;52.252;9.124;2023-07-31T01:44:21;3.60;;;1.93;;
49153;SDS011;49455;52.252;9.124;2023-07-31T01:49:22;3.70;;;2.08;;
49153;SDS011;49455;52.252;9.124;2023-07-31T01:54:22;3.10;;;1.83;;
49153;SDS011;49455;52.252;9.124;2023-07-31T01:59:22;4.78;;;2.28;;
49153;SDS011;49455;52.252;9.124;2023-07-31T02:04:23;2.83;;;1.90;;
49153;SDS011;49455;52.252;9.124;2023-07-31T02:09:23;3.45;;;2.20;;
49153;SDS011;49455;52.252;9.124;2023-07-31T02:14:24;4.07;;;2.30;;
49153;SDS011;49455;52.252;9.124;2023-07-31T02:19:24;4.47;;;2.60;;
49153;SDS011;49455;52.252;9.124;2023-07-31T02:24:25;5.55;;;2.40;;
49153;SDS011;49455;52.252;9.124;2023-07-31T02:29:25;3.55;;;2.50;;
49153;SDS011;49455;52.252;9.124;2023-07-31T02:34:25;4.13;;;2.70;;
49153;SDS011;49455;52.252;9.124;2023-07-31T02:39:27;3.72;;;2.13;;
49153;SDS011;49455;52.252;9.124;2023-07-31T02:44:28;4.30;;;2.45;;
49153;SDS011;49455;52.252;9.124;2023-07-31T02:49:28;4.28;;;2.58;;
49153;SDS011;49455;52.252;9.124;2023-07-31T02:54:29;7.63;;;2.55;;
49153;SDS011;49455;52.252;9.124;2023-07-31T02:59:29;4.43;;;2.33;;
49153;SDS011;49455;52.252;9.124;2023-07-31T03:04:30;3.47;;;2.20;;
49153;SDS011;49455;52.252;9.124;2023-07-31T03:09:30;3.60;;;1.90;;
49153;SDS011;49455;52.252;9.124;2023-07-31T03:14:31;3.75;;;2.20;;
49153;SDS011;49455;52.252;9.124;2023-07-31T03:19:31;3.70;;;2.30;;
49153;SDS011;49455;52.252;9.124;2023-07-31T03:24:32;5.88;;;2.20;;
49153;SDS011;49455;52.252;9.124;2023-07-31T03:29:32;3.75;;;1.88;;
49153;SDS011;49455;52.252;9.124;2023-07-31T03:34:33;4.70;;;2.20;;
49153;SDS011;49455;52.252;9.124;2023-07-31T03:39:33;4.22;;;1.98;;
49153;SDS011;49455;52.252;9.124;2023-07-31T03:44:34;3.58;;;1.60;;
49153;SDS011;49455;52.252;9.124;2023-07-31T03:49:34;3.22;;;1.83;;
49153;SDS011;49455;52.252;9.124;2023-07-31T03:54:34;3.17;;;1.50;;
49153;SDS011;49455;52.252;9.124;2023-07-31T03:59:35;2.17;;;0.93;;
49153;SDS011;49455;52.252;9.124;2023-07-31T04:04:35;2.17;;;0.80;;
49153;SDS011;49455;52.252;9.124;2023-07-31T04:09:36;2.00;;;0.80;;
49153;SDS011;49455;52.252;9.124;2023-07-31T04:14:36;3.00;;;1.20;;
49153;SDS011;49455;52.252;9.124;2023-07-31T04:19:37;2.88;;;1.33;;
49153;SDS011;49455;52.252;9.124;2023-07-31T04:24:37;2.85;;;1.90;;
49153;SDS011;49455;52.252;9.124;2023-07-31T04:29:37;5.25;;;3.35;;
49153;SDS011;49455;52.252;9.124;2023-07-31T04:34:38;5.75;;;3.53;;
49153;SDS011;49455;52.252;9.124;2023-07-31T04:39:39;7.68;;;5.20;;
49153;SDS011;49455;52.252;9.124;2023-07-31T04:44:39;9.57;;;6.50;;
49153;SDS011;49455;52.252;9.124;2023-07-31T04:49:40;16.83;;;9.10;;
49153;SDS011;49455;52.252;9.124;2023-07-31T04:54:40;17.35;;;11.18;;
49153;SDS011;49455;52.252;9.124;2023-07-31T04:59:41;19.95;;;11.45;;
49153;SDS011;49455;52.252;9.124;2023-07-31T05:04:41;15.60;;;11.10;;
49153;SDS011;49455;52.252;9.124;2023-07-31T05:09:42;17.17;;;11.77;;
49153;SDS011;49455;52.252;9.124;2023-07-31T05:14:42;18.13;;;12.40;;
49153;SDS011;49455;52.252;9.124;2023-07-31T05:19:42;16.98;;;11.13;;
49153;SDS011;49455;52.252;9.124;2023-07-31T05:24:43;21.02;;;12.00;;
49153;SDS011;49455;52.252;9.124;2023-07-31T05:29:43;19.58;;;12.10;;
49153;SDS011;49455;52.252;9.124;2023-07-31T05:34:44;18.40;;;11.73;;
49153;SDS011;49455;52.252;9.124;2023-07-31T05:39:45;19.73;;;13.13;;
49153;SDS011;49455;52.252;9.124;2023-07-31T05:44:45;17.10;;;11.65;;
49153;SDS011;49455;52.252;9.124;2023-07-31T05:49:46;18.83;;;12.13;;
49153;SDS011;49455;52.252;9.124;2023-07-31T05:54:46;21.02;;;12.63;;
49153;SDS011;49455;52.252;9.124;2023-07-31T05:59:46;20.02;;;11.45;;
49153;SDS011;49455;52.252;9.124;2023-07-31T06:04:47;19.67;;;12.27;;
49153;SDS011;49455;52.252;9.124;2023-07-31T06:09:47;23.98;;;12.52;;
49153;SDS011;49455;52.252;9.124;2023-07-31T06:14:48;23.05;;;13.20;;
49153;SDS011;49455;52.252;9.124;2023-07-31T06:19:49;24.50;;;12.63;;
49153;SDS011;49455;52.252;9.124;2023-07-31T06:24:49;21.08;;;12.45;;
49153;SDS011;49455;52.252;9.124;2023-07-31T06:29:50;20.30;;;11.40;;
49153;SDS011;49455;52.252;9.124;2023-07-31T06:34:53;22.38;;;11.90;;
49153;SDS011;49455;52.252;9.124;2023-07-31T06:39:54;19.30;;;11.90;;
49153;SDS011;49455;52.252;9.124;2023-07-31T06:44:54;22.13;;;12.63;;
49153;SDS011;49455;52.252;9.124;2023-07-31T06:49:55;23.60;;;11.75;;
49153;SDS011;49455;52.252;9.124;2023-07-31T06:55:02;17.45;;;10.45;;
49153;SDS011;49455;52.252;9.124;2023-07-31T07:00:03;24.05;;;11.43;;
49153;SDS011;49455;52.252;9.124;2023-07-31T07:05:03;23.83;;;10.80;;
49153;SDS011;49455;52.252;9.124;2023-07-31T07:10:04;18.15;;;10.20;;
49153;SDS011;49455;52.252;9.124;2023-07-31T07:15:05;19.45;;;10.27;;
49153;SDS011;49455;52.252;9.124;2023-07-31T07:20:12;17.73;;;9.95;;
49153;SDS011;49455;52.252;9.124;2023-07-31T07:25:15;18.05;;;9.73;;
49153;SDS011;49455;52.252;9.124;2023-07-31T07:30:15;21.13;;;8.93;;
49153;SDS011;49455;52.252;9.124;2023-07-31T07:35:16;17.45;;;9.00;;
49153;SDS011;49455;52.252;9.124;2023-07-31T07:40:16;18.92;;;9.85;;
49153;SDS011;49455;52.252;9.124;2023-07-31T07:45:20;17.27;;;8.30;;
49153;SDS011;49455;52.252;9.124;2023-07-31T07:50:23;17.33;;;8.63;;
49153;SDS011;49455;52.252;9.124;2023-07-31T07:55:26;16.10;;;7.97;;
49153;SDS011;49455;52.252;9.124;2023-07-31T08:00:26;15.40;;;7.90;;
49153;SDS011;49455;52.252;9.124;2023-07-31T08:05:27;17.80;;;8.07;;
49153;SDS011;49455;52.252;9.124;2023-07-31T08:10:27;18.35;;;8.48;;
49153;SDS011;49455;52.252;9.124;2023-07-31T08:15:31;15.35;;;8.30;;
49153;SDS011;49455;52.252;9.124;2023-07-31T08:20:32;16.10;;;8.30;;
49153;SDS011;49455;52.252;9.124;2023-07-31T08:25:34;14.80;;;8.18;;
49153;SDS011;49455;52.252;9.124;2023-07-31T08:30:37;14.93;;;8.85;;
49153;SDS011;49455;52.252;9.124;2023-07-31T08:35:38;14.85;;;8.98;;
49153;SDS011;49455;52.252;9.124;2023-07-31T08:40:38;13.88;;;8.48;;
49153;SDS011;49455;52.252;9.124;2023-07-31T08:45:39;12.23;;;7.90;;
49153;SDS011;49455;52.252;9.124;2023-07-31T08:50:45;10.18;;;6.88;;
49153;SDS011;49455;52.252;9.124;2023-07-31T08:55:46;10.90;;;6.35;;
49153;SDS011;49455;52.252;9.124;2023-07-31T09:00:48;9.35;;;5.55;;
49153;SDS011;49455;52.252;9.124;2023-07-31T09:05:50;6.78;;;4.40;;
49153;SDS011;49455;52.252;9.124;2023-07-31T09:10:51;7.47;;;4.55;;
49153;SDS011;49455;52.252;9.124;2023-07-31T09:15:51;6.07;;;3.80;;
49153;SDS011;49455;52.252;9.124;2023-07-31T09:21:01;6.95;;;4.10;;
49153;SDS011;49455;52.252;9.124;2023-07-31T09:26:11;5.18;;;3.38;;
49153;SDS011;49455;52.252;9.124;2023-07-31T09:31:32;7.05;;;3.88;;
49153;SDS011;49455;52.252;9.124;2023-07-31T09:36:42;5.57;;;3.40;;
49153;SDS011;49455;52.252;9.124;2023-07-31T09:41:55;6.38;;;3.80;;
49153;SDS011;49455;52.252;9.124;2023-07-31T09:46:55;6.55;;;3.70;;
49153;SDS011;49455;52.252;9.124;2023-07-31T09:51:56;5.97;;;3.13;;
49153;SDS011;49455;52.252;9.124;2023-07-31T09:56:56;5.47;;;3.38;;
49153;SDS011;49455;52.252;9.124;2023-07-31T10:01:59;5.28;;;3.05;;
49153;SDS011;49455;52.252;9.124;2023-07-31T10:06:59;5.28;;;2.97;;
49153;SDS011;49455;52.252;9.124;2023-07-31T10:12:03;5.20;;;3.22;;
49153;SDS011;49455;52.252;9.124;2023-07-31T10:17:08;5.32;;;3.35;;
49153;SDS011;49455;52.252;9.124;2023-07-31T10:22:08;7.32;;;3.70;;
49153;SDS011;49455;52.252;9.124;2023-07-31T10:27:10;6.40;;;3.85;;
49153;SDS011;49455;52.252;9.124;2023-07-31T10:32:10;7.55;;;3.80;;
49153;SDS011;49455;52.252;9.124;2023-07-31T10:37:27;5.55;;;3.60;;
49153;SDS011;49455;52.252;9.124;2023-07-31T10:42:30;7.75;;;3.67;;
49153;SDS011;49455;52.252;9.124;2023-07-31T10:47:38;6.90;;;3.25;;
49153;SDS011;49455;52.252;9.124;2023-07-31T10:52:52;5.43;;;2.97;;
49153;SDS011;49455;52.252;9.124;2023-07-31T10:57:54;5.38;;;2.80;;
49153;SDS011;49455;52.252;9.124;2023-07-31T11:02:56;5.13;;;2.72;;
49153;SDS011;49455;52.252;9.124;2023-07-31T11:08:28;5.68;;;2.90;;
49153;SDS011;49455;52.252;9.124;2023-07-31T11:18:32;5.05;;;2.40;;
49153;SDS011;49455;52.252;9.124;2023-07-31T11:23:32;3.90;;;1.80;;
49153;SDS011;49455;52.252;9.124;2023-07-31T11:28:33;3.60;;;1.92;;
49153;SDS011;49455;52.252;9.124;2023-07-31T11:33:34;4.25;;;1.90;;
49153;SDS011;49455;52.252;9.124;2023-07-31T11:38:34;2.72;;;1.30;;
49153;SDS011;49455;52.252;9.124;2023-07-31T11:43:35;2.50;;;1.30;;
49153;SDS011;49455;52.252;9.124;2023-07-31T11:48:35;2.37;;;1.40;;
49153;SDS011;49455;52.252;9.124;2023-07-31T11:53:36;3.42;;;1.40;;
49153;SDS011;49455;52.252;9.124;2023-07-31T11:58:42;2.38;;;1.30;;
49153;SDS011;49455;52.252;9.124;2023-07-31T12:03:45;4.53;;;1.60;;
49153;SDS011;49455;52.252;9.124;2023-07-31T12:08:47;3.55;;;1.48;;
49153;SDS011;49455;52.252;9.124;2023-07-31T12:13:47;2.78;;;1.17;;
49153;SDS011;49455;52.252;9.124;2023-07-31T12:18:49;2.83;;;1.33;;
49153;SDS011;49455;52.252;9.124;2023-07-31T12:23:51;2.72;;;1.52;;
49153;SDS011;49455;52.252;9.124;2023-07-31T12:28:54;2.45;;;1.30;;
49153;SDS011;49455;52.252;9.124;2023-07-31T12:33:54;2.85;;;1.48;;
49153;SDS011;49455;52.252;9.124;2023-07-31T12:38:56;3.08;;;1.73;;
49153;SDS011;49455;52.252;9.124;2023-07-31T12:43:56;2.85;;;1.50;;
49153;SDS011;49455;52.252;9.124;2023-07-31T12:48:57;3.63;;;1.70;;
49153;SDS011;49455;52.252;9.124;2023-07-31T12:53:57;3.53;;;1.77;;
49153;SDS011;49455;52.252;9.124;2023-07-31T12:58:57;4.25;;;1.52;;
49153;SDS011;49455;52.252;9.124;2023-07-31T13:03:57;2.40;;;1.30;;
49153;SDS011;49455;52.252;9.124;2023-07-31T13:08:58;2.53;;;1.38;;
49153;SDS011;49455;52.252;9.124;2023-07-31T13:13:58;5.30;;;1.30;;
49153;SDS011;49455;52.252;9.124;2023-07-31T13:18:58;2.88;;;1.38;;
49153;SDS011;49455;52.252;9.124;2023-07-31T13:23:59;3.33;;;1.20;;
49153;SDS011;49455;52.252;9.124;2023-07-31T13:28:59;2.28;;;1.20;;
49153;SDS011;49455;52.252;9.124;2023-07-31T13:33:59;4.22;;;1.45;;
49153;SDS011;49455;52.252;9.124;2023-07-31T13:39:00;2.72;;;1.70;;
49153;SDS011;49455;52.252;9.124;2023-07-31T13:44:00;3.90;;;2.10;;
49153;SDS011;49455;52.252;9.124;2023-07-31T13:49:00;4.57;;;2.40;;
49153;SDS011;49455;52.252;9.124;2023-07-31T13:54:01;4.93;;;3.20;;
49153;SDS011;49455;52.252;9.124;2023-07-31T13:59:01;5.38;;;3.90;;
49153;SDS011;49455;52.252;9.124;2023-07-31T14:04:02;6.35;;;4.53;;
49153;SDS011;49455;52.252;9.124;2023-07-31T14:09:03;7.00;;;5.28;;
49153;SDS011;49455;52.252;9.124;2023-07-31T14:14:03;6.63;;;5.13;;
49153;SDS011;49455;52.252;9.124;2023-07-31T14:19:04;8.85;;;5.10;;
49153;SDS011;49455;52.252;9.124;2023-07-31T14:24:04;6.95;;;5.30;;
49153;SDS011;49455;52.252;9.124;2023-07-31T14:29:05;7.45;;;5.20;;
49153;SDS011;49455;52.252;9.124;2023-07-31T14:34:05;7.38;;;5.05;;
49153;SDS011;49455;52.252;9.124;2023-07-31T14:39:05;5.85;;;4.57;;
49153;SDS011;49455;52.252;9.124;2023-07-31T14:44:06;6.77;;;4.30;;
49153;SDS011;49455;52.252;9.124;2023-07-31T14:49:06;6.95;;;4.35;;
49153;SDS011;49455;52.252;9.124;2023-07-31T14:54:07;5.65;;;4.03;;
49153;SDS011;49455;52.252;9.124;2023-07-31T14:59:07;6.32;;;4.35;;
49153;SDS011;49455;52.252;9.124;2023-07-31T15:04:07;7.10;;;4.45;;
49153;SDS011;49455;52.252;9.124;2023-07-31T15:09:08;6.80;;;4.40;;
49153;SDS011;49455;52.252;9.124;2023-07-31T15:14:08;6.97;;;4.72;;
49153;SDS011;49455;52.252;9.124;2023-07-31T15:19:08;6.50;;;4.50;;
49153;SDS011;49455;52.252;9.124;2023-07-31T15:24:09;6.55;;;4.70;;
49153;SDS011;49455;52.252;9.124;2023-07-31T15:29:09;7.57;;;4.75;;
49153;SDS011;49455;52.252;9.124;2023-07-31T15:34:10;6.25;;;4.90;;
49153;SDS011;49455;52.252;9.124;2023-07-31T15:39:10;7.68;;;5.88;;
49153;SDS011;49455;52.252;9.124;2023-07-31T15:44:10;7.13;;;5.80;;
49153;SDS011;49455;52.252;9.124;2023-07-31T15:49:11;7.35;;;5.78;;
49153;SDS011;49455;52.252;9.124;2023-07-31T15:54:11;7.00;;;5.70;;
49153;SDS011;49455;52.252;9.124;2023-07-31T15:59:12;6.97;;;4.78;;
49153;SDS011;49455;52.252;9.124;2023-07-31T16:04:12;6.63;;;5.05;;
49153;SDS011;49455;52.252;9.124;2023-07-31T16:09:12;5.90;;;4.25;;
49153;SDS011;49455;52.252;9.124;2023-07-31T16:14:13;5.70;;;3.83;;
49153;SDS011;49455;52.252;9.124;2023-07-31T16:19:13;7.17;;;4.10;;
49153;SDS011;49455;52.252;9.124;2023-07-31T16:24:14;5.80;;;4.10;;
49153;SDS011;49455;52.252;9.124;2023-07-31T16:29:14;5.78;;;4.00;;
49153;SDS011;49455;52.252;9.124;2023-07-31T16:34:15;5.17;;;3.97;;
49153;SDS011;49455;52.252;9.124;2023-07-31T16:39:15;7.60;;;4.00;;
49153;SDS011;49455;52.252;9.124;2023-07-31T16:44:15;6.80;;;4.10;;
49153;SDS011;49455;52.252;9.124;2023-07-31T16:49:16;6.53;;;4.50;;
49153;SDS011;49455;52.252;9.124;2023-07-31T16:54:16;7.05;;;5.25;;
49153;SDS011;49455;52.252;9.124;2023-07-31T16:59:17;7.60;;;4.60;;
49153;SDS011;49455;52.252;9.124;2023-07-31T17:04:18;6.38;;;4.80;;
49153;SDS011;49455;52.252;9.124;2023-07-31T17:09:19;7.10;;;4.57;;
49153;SDS011;49455;52.252;9.124;2023-07-31T17:14:19;6.82;;;4.22;;
49153;SDS011;49455;52.252;9.124;2023-07-31T17:19:19;6.82;;;3.90;;
49153;SDS011;49455;52.252;9.124;2023-07-31T17:24:20;6.55;;;4.07;;
49153;SDS011;49455;52.252;9.124;2023-07-31T17:29:20;6.43;;;3.75;;
49153;SDS011;49455;52.252;9.124;2023-07-31T17:34:27;6.60;;;3.75;;
49153;SDS011;49455;52.252;9.124;2023-07-31T17:39:27;7.05;;;3.70;;
49153;SDS011;49455;52.252;9.124;2023-07-31T17:44:27;6.28;;;3.75;;
49153;SDS011;49455;52.252;9.124;2023-07-31T17:49:28;7.20;;;3.70;;
49153;SDS011;49455;52.252;9.124;2023-07-31T17:54:28;5.68;;;3.90;;
49153;SDS011;49455;52.252;9.124;2023-07-31T17:59:29;7.28;;;3.80;;
49153;SDS011;49455;52.252;9.124;2023-07-31T18:04:29;7.43;;;5.15;;
49153;SDS011;49455;52.252;9.124;2023-07-31T18:09:29;6.75;;;3.95;;
49153;SDS011;49455;52.252;9.124;2023-07-31T18:14:30;5.43;;;3.85;;
49153;SDS011;49455;52.252;9.124;2023-07-31T18:19:30;5.65;;;3.63;;
49153;SDS011;49455;52.252;9.124;2023-07-31T18:24:31;6.17;;;4.17;;
49153;SDS011;49455;52.252;9.124;2023-07-31T18:29:31;6.25;;;3.72;;
49153;SDS011;49455;52.252;9.124;2023-07-31T18:34:32;4.65;;;3.50;;
49153;SDS011;49455;52.252;9.124;2023-07-31T18:39:32;6.70;;;3.95;;
49153;SDS011;49455;52.252;9.124;2023-07-31T18:44:32;5.30;;;3.90;;
49153;SDS011;49455;52.252;9.124;2023-07-31T18:49:33;8.52;;;4.53;;
49153;SDS011;49455;52.252;9.124;2023-07-31T18:54:33;7.03;;;4.70;;
49153;SDS011;49455;52.252;9.124;2023-07-31T18:59:34;7.32;;;4.72;;
49153;SDS011;49455;52.252;9.124;2023-07-31T19:04:37;8.80;;;5.53;;
49153;SDS011;49455;52.252;9.124;2023-07-31T19:09:38;9.02;;;5.68;;
49153;SDS011;49455;52.252;9.124;2023-07-31T19:14:38;7.50;;;5.18;;
49153;SDS011;49455;52.252;9.124;2023-07-31T19:19:39;7.90;;;5.20;;
49153;SDS011;49455;52.252;9.124;2023-07-31T19:24:39;9.43;;;6.45;;
49153;SDS011;49455;52.252;9.124;2023-07-31T19:29:40;9.20;;;5.80;;
49153;SDS011;49455;52.252;9.124;2023-07-31T19:34:40;8.68;;;5.75;;
49153;SDS011;49455;52.252;9.124;2023-07-31T19:39:41;9.32;;;5.95;;
49153;SDS011;49455;52.252;9.124;2023-07-31T19:44:42;8.63;;;6.20;;
49153;SDS011;49455;52.252;9.124;2023-07-31T19:49:43;8.25;;;5.97;;
49153;SDS011;49455;52.252;9.124;2023-07-31T19:54:43;9.18;;;5.72;;
49153;SDS011;49455;52.252;9.124;2023-07-31T19:59:44;9.30;;;5.82;;
49153;SDS011;49455;52.252;9.124;2023-07-31T20:04:44;8.30;;;6.20;;
49153;SDS011;49455;52.252;9.124;2023-07-31T20:09:44;8.43;;;5.57;;
49153;SDS011;49455;52.252;9.124;2023-07-31T20:14:45;8.40;;;5.47;;
49153;SDS011;49455;52.252;9.124;2023-07-31T20:19:45;9.30;;;5.30;;
49153;SDS011;49455;52.252;9.124;2023-07-31T20:24:46;7.38;;;4.40;;
49153;SDS011;49455;52.252;9.124;2023-07-31T20:29:46;4.88;;;3.25;;
49153;SDS011;49455;52.252;9.124;2023-07-31T20:34:47;5.93;;;3.45;;
49153;SDS011;49455;52.252;9.124;2023-07-31T20:39:47;5.38;;;3.00;;
49153;SDS011;49455;52.252;9.124;2023-07-31T20:44:48;5.32;;;3.17;;
49153;SDS011;49455;52.252;9.124;2023-07-31T20:49:48;5.68;;;3.45;;
49153;SDS011;49455;52.252;9.124;2023-07-31T20:54:49;6.10;;;3.55;;
49153;SDS011;49455;52.252;9.124;2023-07-31T20:59:50;7.75;;;3.75;;
49153;SDS011;49455;52.252;9.124;2023-07-31T21:04:51;6.82;;;4.05;;
49153;SDS011;49455;52.252;9.124;2023-07-31T21:09:51;6.85;;;3.80;;
49153;SDS011;49455;52.252;9.124;2023-07-31T21:14:51;6.10;;;3.40;;
49153;SDS011;49455;52.252;9.124;2023-07-31T21:19:52;4.97;;;2.63;;
49153;SDS011;49455;52.252;9.124;2023-07-31T21:24:52;4.45;;;2.55;;
49153;SDS011;49455;52.252;9.124;2023-07-31T21:29:53;5.78;;;2.45;;
49153;SDS011;49455;52.252;9.124;2023-07-31T21:34:53;4.33;;;2.40;;
49153;SDS011;49455;52.252;9.124;2023-07-31T21:39:53;3.92;;;1.70;;
49153;SDS011;49455;52.252;9.124;2023-07-31T21:44:54;2.67;;;1.48;;
49153;SDS011;49455;52.252;9.124;2023-07-31T21:49:54;5.28;;;1.45;;
49153;SDS011;49455;52.252;9.124;2023-07-31T21:54:55;2.80;;;1.30;;
49153;SDS011;49455;52.252;9.124;2023-07-31T21:59:55;2.42;;;1.20;;
49153;SDS011;49455;52.252;9.124;2023-07-31T22:04:55;2.45;;;1.20;;
49153;SDS011;49455;52.252;9.124;2023-07-31T22:09:56;2.65;;;1.25;;
49153;SDS011;49455;52.252;9.124;2023-07-31T22:14:56;2.60;;;1.10;;
49153;SDS011;49455;52.252;9.124;2023-07-31T22:19:57;1.30;;;0.80;;
49153;SDS011;49455;52.252;9.124;2023-07-31T22:24:57;2.08;;;0.90;;
49153;SDS011;49455;52.252;9.124;2023-07-31T22:29:57;1.77;;;1.00;;
49153;SDS011;49455;52.252;9.124;2023-07-31T22:34:58;1.27;;;0.68;;
49153;SDS011;49455;52.252;9.124;2023-07-31T22:39:58;1.90;;;0.80;;
49153;SDS011;49455;52.252;9.124;2023-07-31T22:44:59;1.60;;;1.00;;
49153;SDS011;49455;52.252;9.124;2023-07-31T22:49:59;2.47;;;1.30;;
49153;SDS011;49455;52.252;9.124;2023-07-31T22:54:59;2.38;;;1.20;;
49153;SDS011;49455;52.252;9.124;2023-07-31T23:00:00;2.05;;;1.20;;
49153;SDS011;49455;52.252;9.124;2023-07-31T23:05:00;2.20;;;1.20;;
49153;SDS011;49455;52.252;9.124;2023-07-31T23:10:01;3.22;;;1.40;;
49153;SDS011;49455;52.252;9.124;2023-07-31T23:15:01;2.83;;;1.48;;
49153;SDS011;49455;52.252;9.124;2023-07-31T23:20:01;3.22;;;1.60;;
49153;SDS011;49455;52.252;9.124;2023-07-31T23:25:02;3.60;;;1.80;;
49153;SDS011;49455;52.252;9.124;2023-07-31T23:30:03;2.72;;;1.80;;
49153;SDS011;49455;52.252;9.124;2023-07-31T23:35:04;3.00;;;1.85;;
49153;SDS011;49455;52.252;9.124;2023-07-31T23:40:05;3.95;;;1.73;;
49153;SDS011;49455;52.252;9.124;2023-07-31T23:45:06;2.45;;;1.60;;
49153;SDS011;49455;52.252;9.124;2023-07-31T23:50:07;2.60;;;1.70;;
49153;SDS011;49455;52.252;9.124;2023-07-31T23:55:08;2.72;;;1.70;;
